ANA4914 RJFE-RJFF

Flight info

Callsign ANA4914
Flight time N/A
Altitude 11000
Route OLVIN Y253 ATSAG
Aircraft DH8D/M-SDE2E3FGRY/H

Departure

Time 2026-05-07 13:04
Airport Fukue Airport (RJFE)

Arrival

Time N/A
Airport Fukuoka Airport (RJFF)
Time Latitude Longitude Altitude Speed Heading
2026-05-07 12:29 32.66885 128.83690 269 ft 0 kts 171°
2026-05-07 12:56 32.66882 128.83691 269 ft 2 kts 171°
2026-05-07 12:56 32.66857 128.83684 269 ft 6 kts 220°
2026-05-07 12:57 32.66876 128.83624 266 ft 9 kts 317°
2026-05-07 12:57 32.66908 128.83571 266 ft 5 kts 296°
2026-05-07 12:57 32.66929 128.83521 265 ft 8 kts 297°
2026-05-07 12:57 32.66974 128.83481 266 ft 8 kts
2026-05-07 12:58 32.67067 128.83530 269 ft 22 kts 26°
2026-05-07 12:58 32.67200 128.83606 271 ft 19 kts 26°
2026-05-07 12:58 32.67313 128.83672 270 ft 17 kts 26°
2026-05-07 12:58 32.67399 128.83711 269 ft 10 kts 15°
2026-05-07 12:59 32.67426 128.83739 268 ft 4 kts 133°
2026-05-07 12:59 32.67406 128.83733 268 ft 2 kts 213°
2026-05-07 12:59 32.67399 128.83727 269 ft 0 kts 214°
2026-05-07 13:00 32.67381 128.83711 269 ft 2 kts 207°
2026-05-07 13:03 32.67296 128.83661 271 ft 36 kts 206°
2026-05-07 13:03 32.66797 128.83375 259 ft 119 kts 205°
2026-05-07 13:03 32.65896 128.82854 391 ft 152 kts 206°
2026-05-07 13:03 32.64934 128.82268 871 ft 165 kts 208°
2026-05-07 13:04 32.63885 128.81621 1390 ft 175 kts 210°
2026-05-07 13:04 32.62801 128.80977 2031 ft 179 kts 208°
2026-05-07 13:04 32.61674 128.80344 2688 ft 181 kts 208°
2026-05-07 13:04 32.60535 128.79706 3323 ft 184 kts 208°
2026-05-07 13:05 32.59380 128.79059 3976 ft 186 kts 208°
2026-05-07 13:05 32.58196 128.78435 4637 ft 189 kts 201°
2026-05-07 13:05 32.56890 128.78543 5200 ft 201 kts 154°
2026-05-07 13:05 32.55957 128.79787 5772 ft 210 kts 120°
2026-05-07 13:06 32.55316 128.81339 6393 ft 212 kts 118°
2026-05-07 13:06 32.54680 128.82909 7000 ft 214 kts 118°
2026-05-07 13:06 32.54031 128.84511 7590 ft 217 kts 118°
2026-05-07 13:06 32.53390 128.86114 8157 ft 220 kts 115°
2026-05-07 13:07 32.53215 128.87918 8652 ft 226 kts 75°
2026-05-07 13:07 32.54090 128.89421 9093 ft 225 kts 30°
2026-05-07 13:07 32.55508 128.90256 9331 ft 243 kts 19°
2026-05-07 13:07 32.57140 128.91045 9515 ft 260 kts 18°
2026-05-07 13:08 32.58847 128.91858 9807 ft 268 kts 18°
2026-05-07 13:08 32.60586 128.92686 10200 ft 271 kts 18°
2026-05-07 13:08 32.62346 128.93526 10562 ft 275 kts 18°
2026-05-07 13:08 32.64136 128.94379 10859 ft 277 kts 18°
2026-05-07 13:09 32.65962 128.95247 10962 ft 288 kts 18°
2026-05-07 13:09 32.67832 128.96138 10989 ft 291 kts 18°
2026-05-07 13:09 32.69711 128.97035 10996 ft 294 kts 18°
2026-05-07 13:09 32.71639 128.97955 11000 ft 300 kts 18°
2026-05-07 13:10 32.73601 128.98892 11002 ft 310 kts 18°
2026-05-07 13:10 32.75600 128.99850 10995 ft 310 kts 18°
2026-05-07 13:10 32.77595 129.00807 10995 ft 309 kts 18°
2026-05-07 13:10 32.79596 129.01767 10998 ft 309 kts 18°
2026-05-07 13:11 32.81598 129.02727 10997 ft 309 kts 18°
2026-05-07 13:11 32.83598 129.03687 10997 ft 309 kts 18°
2026-05-07 13:11 32.85573 129.04634 10997 ft 308 kts 18°
2026-05-07 13:11 32.87568 129.05594 10994 ft 308 kts 18°
2026-05-07 13:12 32.89538 129.06540 10992 ft 307 kts 18°
2026-05-07 13:12 32.91523 129.07495 10994 ft 306 kts 18°
2026-05-07 13:12 32.93509 129.08450 10994 ft 308 kts 18°
2026-05-07 13:12 32.95496 129.09407 10995 ft 308 kts 18°
2026-05-07 13:13 32.97492 129.10368 10994 ft 309 kts 18°
2026-05-07 13:13 32.99486 129.11340 10992 ft 310 kts 20°
2026-05-07 13:13 33.01153 129.12488 10993 ft 313 kts 32°
2026-05-07 13:13 33.02922 129.14035 10994 ft 316 kts 33°
2026-05-07 13:14 33.04705 129.15613 10995 ft 320 kts 33°
2026-05-07 13:14 33.06483 129.17188 10994 ft 322 kts 33°
2026-05-07 13:14 33.08285 129.18782 10992 ft 322 kts 33°
2026-05-07 13:14 33.10082 129.20367 10993 ft 321 kts 33°
2026-05-07 13:15 33.11827 129.21909 10991 ft 321 kts 33°